Data for 11/22/2009

Time Sea-Level Adjusted Pressure Absolute Pressure Temperature Relative Humidity Dew Point   
(mb) (inHg) (mb) (inHg) (C) (F) (%) (C) (F)
00:05 1015 29.97 844 24.92 -7.4 18.6 64 -13.2 8.3
00:10 1015 29.97 844 24.92 -7.2 19 64 -13 8.6
00:15 1015 29.97 844 24.92 -6.6 20.1 61 -13 8.7
00:20 1015 29.97 844 24.92 -6.4 20.5 61 -12.8 9
00:25 1015 29.97 844 24.92 -6.8 19.7 63 -12.8 9
00:30 1015 29.97 844 24.92 -7.1 19.3 63 -13 8.7
00:35 1015 29.97 844 24.92 -6.5 20.2 61 -13 8.6
00:40 1014 29.94 844 24.92 -6.5 20.2 61 -12.9 8.8
00:45 1014 29.94 844 24.92 -7.1 19.2 61 -13.4 7.9
00:50 1014 29.94 844 24.92 -6.9 19.6 59 -13.5 7.7
00:55 1014 29.94 844 24.92 -6.5 20.3 59 -13.3 8.1
01:00 1014 29.94 843 24.89 -6.2 20.8 58 -13.3 8.1
01:05 1014 29.94 843 24.89 -6 21.1 57 -13.3 8.1
01:10 1014 29.94 843 24.89 -6.4 20.6 58 -13.4 7.9
01:15 1014 29.94 843 24.89 -6.6 20.1 60 -13.2 8.2
01:20 1014 29.94 843 24.89 -6.7 20 59 -13.3 8
01:25 1014 29.94 843 24.89 -6.7 19.9 61 -13.1 8.4
01:30 1014 29.94 843 24.89 -7.6 18.4 63 -13.4 7.9
01:35 1014 29.94 843 24.89 -7.9 17.8 63 -13.8 7.2
01:40 1014 29.94 843 24.89 -7.8 18.1 62 -13.8 7.2
01:45 1014 29.94 843 24.89 -8.1 17.5 63 -14 6.8
01:50 1014 29.94 843 24.89 -8.3 17.2 64 -13.9 7
01:55 1014 29.94 843 24.89 -7.8 17.9 63 -13.7 7.4
02:00 1014 29.94 843 24.89 -8.1 17.4 63 -13.9 7
02:05 1014 29.94 843 24.89 -8.1 17.4 64 -13.8 7.2
02:10 1014 29.94 843 24.89 -8.2 17.2 65 -13.7 7.3
02:15 1014 29.94 843 24.89 -9 15.8 68 -13.9 7
02:20 1014 29.94 843 24.89 -8.9 16 67 -13.9 6.9
02:25 1014 29.94 843 24.89 -8.5 16.8 66 -13.7 7.4
02:30 1014 29.94 843 24.89 -8.3 17.1 65 -13.8 7.2
02:35 1014 29.94 843 24.89 -8.6 16.6 67 -13.7 7.3
02:40 1014 29.94 843 24.89 -8.8 16.2 68 -13.7 7.4
02:45 1014 29.94 843 24.89 -8.7 16.4 67 -13.8 7.2
02:50 1014 29.94 843 24.89 -9.9 14.1 72 -14.1 6.7
02:55 1014 29.94 843 24.89 -10.2 13.7 71 -14.5 6
03:00 1014 29.94 843 24.89 -9.8 14.3 70 -14.3 6.3
03:05 1014 29.94 843 24.89 -9.5 15 69 -14.2 6.5
03:10 1014 29.94 843 24.89 -9.2 15.5 68 -14 6.8
03:15 1014 29.94 843 24.89 -8.9 16 65 -14.3 6.3
03:20 1014 29.94 843 24.89 -8.8 16.3 66 -14.1 6.6
03:25 1014 29.94 843 24.89 -8.9 15.9 67 -14 6.8
03:30 1014 29.94 843 24.89 -9.1 15.6 67 -14.2 6.5
03:35 1013 29.91 843 24.89 -8.7 16.3 65 -14.2 6.4
03:40 1013 29.91 843 24.89 -8.5 16.8 64 -14 6.7
03:45 1013 29.91 843 24.89 -8.7 16.3 66 -14 6.8
03:50 1013 29.91 842 24.86 -8.9 16.1 65 -14.2 6.4
03:55 1013 29.91 842 24.86 -8.6 16.4 64 -14.2 6.4
04:00 1013 29.91 842 24.86 -8.7 16.3 66 -14 6.7
04:05 1013 29.91 842 24.86 -8.9 16 66 -14.2 6.5
04:10 1013 29.91 842 24.86 -8.8 16.1 66 -14 6.8
04:15 1013 29.91 842 24.86 -8.6 16.6 65 -13.9 6.9
04:20 1013 29.91 842 24.86 -8.8 16.3 66 -14 6.9
04:25 1013 29.91 842 24.86 -8.7 16.4 66 -14 6.8
04:30 1013 29.91 842 24.86 -8.5 16.7 65 -14 6.8
04:35 1013 29.91 842 24.86 -8.6 16.6 65 -13.9 6.9
04:40 1013 29.91 842 24.86 -8.6 16.6 64 -14.1 6.6
04:45 1013 29.91 842 24.86 -8.8 16.2 65 -14.3 6.3
04:50 1013 29.91 842 24.86 -9 15.8 65 -14.5 6
04:55 1013 29.91 842 24.86 -8.9 16 64 -14.6 5.8
05:00 1013 29.91 842 24.86 -8.9 16.1 64 -14.5 5.8
05:05 1013 29.91 842 24.86 -8.8 16.2 64 -14.4 6
05:10 1013 29.91 842 24.86 -8.8 16.2 64 -14.4 6
05:15 1013 29.91 842 24.86 -9 15.7 67 -14.1 6.6
05:20 1012 29.88 842 24.86 -9.2 15.4 66 -14.4 6.1
05:25 1012 29.88 841 24.83 -9.4 15.2 68 -14.2 6.4
05:30 1012 29.88 841 24.83 -9.5 14.9 68 -14.4 6
05:35 1012 29.88 841 24.83 -9.1 15.7 66 -14.2 6.4
05:40 1012 29.88 841 24.83 -8.6 16.5 65 -14.1 6.6
05:45 1012 29.88 841 24.83 -8.6 16.5 65 -14.1 6.7
05:50 1012 29.88 841 24.83 -8.5 16.8 64 -14.1 6.7
05:55 1012 29.88 841 24.83 -8.8 16.2 66 -14 6.9
06:00 1012 29.88 841 24.83 -9 15.9 67 -14.1 6.7
06:05 1012 29.88 841 24.83 -8.8 16.2 66 -14.1 6.5
06:10 1012 29.88 841 24.83 -8.2 17.2 64 -14 6.8
06:15 1011 29.85 841 24.83 -8.1 17.4 64 -13.8 7.2
06:20 1011 29.85 841 24.83 -8.1 17.4 64 -13.8 7.2
06:25 1011 29.85 840 24.81 -8 17.6 64 -13.7 7.4
06:30 1011 29.85 840 24.81 -8.2 17.2 65 -13.7 7.3
06:35 1011 29.85 840 24.81 -8 17.6 64 -13.7 7.4
06:40 1011 29.85 840 24.81 -7.5 18.6 62 -13.5 7.7
06:45 1011 29.85 840 24.81 -7.5 18.5 63 -13.4 7.8
06:50 1011 29.85 840 24.81 -7.7 18.2 63 -13.6 7.4
06:55 1011 29.85 840 24.81 -7.4 18.7 61 -13.6 7.5
07:00 1011 29.85 840 24.81 -6.9 19.6 60 -13.4 7.9
07:05 1011 29.85 840 24.81 -6.6 20.1 59 -13.3 8
07:10 1011 29.85 840 24.81 -7.1 19.3 60 -13.5 7.7
07:15 1011 29.85 840 24.81 -7.4 18.6 61 -13.7 7.4
07:20 1010 29.83 840 24.81 -7.1 19.1 61 -13.5 7.7
07:25 1010 29.83 840 24.81 -6.7 20 59 -13.3 8
07:30 1010 29.83 840 24.81 -6.7 19.9 60 -13.3 8
07:35 1010 29.83 839 24.78 -6.5 20.2 59 -13.3 8
07:40 1010 29.83 839 24.78 -6.3 20.7 58 -13.3 8.1
07:45 1010 29.83 839 24.78 -6.2 20.8 57 -13.3 8
07:50 1010 29.83 839 24.78 -6.3 20.6 58 -13.2 8.2
07:55 1010 29.83 839 24.78 -6.1 21 57 -13.3 8.1
08:00 1010 29.83 839 24.78 -5.8 21.6 56 -13.2 8.2
08:05 1010 29.83 839 24.78 -5.6 22 57 -12.9 8.8
08:10 1010 29.83 839 24.78 -5.6 22 56 -13.1 8.4
08:15 1009 29.8 839 24.78 -5.8 21.6 56 -13.3 8.1
08:20 1009 29.8 839 24.78 -5.9 21.3 57 -13.2 8.2
08:25 1009 29.8 839 24.78 -5.8 21.6 55 -13.4 7.9
08:30 1010 29.83 839 24.78 -5.4 22.3 54 -13.3 8
08:35 1010 29.83 839 24.78 -5.1 22.9 53 -13.2 8.3
08:40 1010 29.83 839 24.78 -4.6 23.6 51 -13.2 8.2
08:45 1010 29.83 839 24.78 -4.7 23.5 52 -13.2 8.3
08:50 1010 29.83 839 24.78 -4.8 23.4 51 -13.5 7.6
08:55 1010 29.83 839 24.78 -4.5 23.9 50 -13.4 7.8
09:00 1010 29.83 839 24.78 -4.3 24.2 50 -13.3 8.1
09:05 1010 29.83 839 24.78 -4 24.8 50 -13.1 8.5
09:10 1010 29.83 839 24.78 -3.9 25 50 -12.9 8.8
09:15 1010 29.83 839 24.78 -4 24.9 52 -12.4 9.7
09:20 1010 29.83 839 24.78 -4.5 23.8 54 -12.5 9.4
09:25 1009 29.8 839 24.78 -5.1 22.8 57 -12.3 9.8
09:30 1009 29.8 838 24.75 -5.7 21.7 60 -12.3 9.9
09:35 1009 29.8 838 24.75 -6.3 20.7 61 -12.6 9.4
09:40 1009 29.8 839 24.78 -6.4 20.4 62 -12.7 9.2
09:45 1009 29.8 839 24.78 -6.4 20.5 62 -12.6 9.3
09:50 1010 29.83 839 24.78 -5.8 21.6 60 -12.3 9.9
09:55 1010 29.83 839 24.78 -5.3 22.4 59 -12.2 10.1
10:00 1010 29.83 839 24.78 -5 22.9 57 -12.2 10
10:05 1010 29.83 839 24.78 -5.2 22.6 57 -12.4 9.7
10:10 1010 29.83 839 24.78 -5.4 22.3 57 -12.6 9.4
10:15 1010 29.83 839 24.78 -4.7 23.6 57 -11.9 10.6
10:20 1010 29.83 839 24.78 -5.2 22.7 58 -12.2 10.1
10:25 1010 29.83 839 24.78 -5.1 22.9 58 -12 10.3
10:30 1010 29.83 839 24.78 -4.5 23.8 55 -12.2 10
10:35 1009 29.8 839 24.78 -4.6 23.7 55 -12.4 9.6
10:40 1009 29.8 839 24.78 -4.3 24.2 56 -11.9 10.5
10:45 1009 29.8 839 24.78 -4.1 24.6 56 -11.6 11.1
10:50 1009 29.8 839 24.78 -4.3 24.3 56 -11.8 10.7
10:55 1009 29.8 839 24.78 -4.2 24.4 55 -12 10.4
11:00 1009 29.8 839 24.78 -4.2 24.4 56 -11.8 10.8
11:05 1009 29.8 839 24.78 -4.1 24.7 56 -11.5 11.3
11:10 1009 29.8 839 24.78 -4.5 24 58 -11.6 11.1
11:15 1009 29.8 839 24.78 -4.4 24 58 -11.5 11.2
11:20 1009 29.8 839 24.78 -3.9 24.9 56 -11.5 11.2
11:25 1009 29.8 839 24.78 -3.8 25.1 56 -11.5 11.4
11:30 1009 29.8 839 24.78 -3.7 25.4 54 -11.7 11
11:35 1009 29.8 839 24.78 -3.7 25.3 56 -11.3 11.7
11:40 1010 29.83 839 24.78 -4.1 24.7 60 -10.8 12.6
11:45 1010 29.83 839 24.78 -4.6 23.6 62 -10.9 12.4
11:50 1010 29.83 839 24.78 -4.2 24.4 61 -10.7 12.7
11:55 1010 29.83 839 24.78 -4.2 24.5 62 -10.3 13.4
12:00 1010 29.83 839 24.78 -4 24.9 65 -9.6 14.7
12:05 1010 29.83 839 24.78 -4.1 24.7 70 -8.7 16.3
12:10 1010 29.83 839 24.78 -4.1 24.7 75 -7.8 17.9
12:15 1010 29.83 839 24.78 -4 24.8 81 -6.8 19.8
12:20 1010 29.83 839 24.78 -4.3 24.3 85 -6.4 20.5
12:25 1010 29.83 839 24.78 -4.3 24.3 88 -6 21.2
12:30 1010 29.83 839 24.78 -4.1 24.6 90 -5.6 21.9
12:35 1010 29.83 839 24.78 -3.9 24.9 91 -5.2 22.6
12:40 1010 29.83 840 24.81 -3.8 25.2 92 -5 23
12:45 1010 29.83 840 24.81 -3.6 25.5 92 -4.7 23.6
12:50 1010 29.83 840 24.81 -3.3 26.1 92 -4.4 24
12:55 1010 29.83 840 24.81 -3.2 26.3 91 -4.5 24
13:00 1010 29.83 840 24.81 -3.2 26.2 90 -4.6 23.7
13:05 1010 29.83 840 24.81 -3.4 25.8 92 -4.6 23.8
13:10 1010 29.83 840 24.81 -3.4 25.9 91 -4.6 23.7
13:15 1011 29.85 840 24.81 -3.4 25.9 91 -4.7 23.5
13:20 1011 29.85 840 24.81 -3.2 26.2 91 -4.5 23.8
13:25 1011 29.85 840 24.81 -3.4 25.9 92 -4.5 23.9
13:30 1011 29.85 840 24.81 -3.2 26.3 90 -4.5 23.9
13:35 1011 29.85 840 24.81 -2.9 26.7 89 -4.5 23.9
13:40 1011 29.85 840 24.81 -2.9 26.7 89 -4.6 23.8
13:45 1011 29.85 840 24.81 -3.1 26.4 91 -4.4 24
13:50 1011 29.85 840 24.81 -3.3 26 91 -4.5 23.9
13:55 1011 29.85 840 24.81 -3.4 25.9 91 -4.7 23.6
14:00 1011 29.85 840 24.81 -3.5 25.7 92 -4.6 23.8
14:05 1011 29.85 840 24.81 -3.1 26.4 91 -4.4 24.1
14:10 1011 29.85 840 24.81 -2.9 26.8 90 -4.3 24.2
14:15 1011 29.85 840 24.81 -2.8 27 89 -4.3 24.2
14:20 1011 29.85 840 24.81 -2.8 26.9 90 -4.2 24.4
14:25 1011 29.85 840 24.81 -2.7 27.1 90 -4.1 24.5
14:30 1011 29.85 840 24.81 -2.7 27.2 90 -4.2 24.5
14:35 1011 29.85 840 24.81 -2.7 27.2 90 -4.2 24.5
14:40 1011 29.85 840 24.81 -2.7 27.1 90 -4.1 24.7
14:45 1011 29.85 840 24.81 -2.5 27.5 89 -4 24.8
14:50 1011 29.85 840 24.81 -2.4 27.7 89 -4 24.8
14:55 1011 29.85 840 24.81 -2.6 27.3 89 -4.2 24.4
15:00 1011 29.85 840 24.81 -2.8 27 90 -4.2 24.4
15:05 1011 29.85 840 24.81 -2.9 26.8 89 -4.4 24
15:10 1011 29.85 840 24.81 -2.9 26.8 89 -4.5 24
15:15 1011 29.85 840 24.81 -2.9 26.8 89 -4.4 24
15:20 1011 29.85 840 24.81 -2.8 26.9 88 -4.5 23.9
15:25 1011 29.85 840 24.81 -2.8 26.9 89 -4.4 24
15:30 1011 29.85 840 24.81 -2.5 27.5 87 -4.4 24
15:35 1011 29.85 840 24.81 -2.3 27.8 87 -4.3 24.3
15:40 1011 29.85 840 24.81 -2.7 27.2 89 -4.2 24.4
15:45 1011 29.85 840 24.81 -3.2 26.3 91 -4.5 23.9
15:50 1011 29.85 840 24.81 -3.6 25.6 92 -4.7 23.6
15:55 1011 29.85 840 24.81 -3.5 25.7 92 -4.7 23.6
16:00 1011 29.85 840 24.81 -3.4 25.9 91 -4.6 23.7
16:05 1011 29.85 840 24.81 -3.2 26.3 90 -4.6 23.8
16:10 1011 29.85 840 24.81 -3.1 26.4 90 -4.5 23.9
16:15 1011 29.85 840 24.81 -2.9 26.7 89 -4.5 24
16:20 1011 29.85 840 24.81 -2.8 26.9 89 -4.5 24
16:25 1011 29.85 840 24.81 -2.9 26.7 89 -4.5 23.8
16:30 1011 29.85 840 24.81 -3 26.5 89 -4.6 23.7
16:35 1011 29.85 840 24.81 -3.1 26.4 89 -4.6 23.6
16:40 1011 29.85 840 24.81 -3.2 26.3 89 -4.7 23.6
16:45 1011 29.85 840 24.81 -3.1 26.3 90 -4.6 23.7
16:50 1011 29.85 840 24.81 -3 26.6 90 -4.5 23.9
16:55 1011 29.85 840 24.81 -3 26.7 89 -4.5 24
17:00 1011 29.85 840 24.81 -2.9 26.7 89 -4.5 23.8
17:05 1011 29.85 840 24.81 -2.9 26.7 89 -4.5 23.9
17:10 1011 29.85 841 24.83 -2.9 26.8 89 -4.5 23.9
17:15 1011 29.85 841 24.83 -2.9 26.8 88 -4.5 23.8
17:20 1011 29.85 841 24.83 -2.9 26.8 88 -4.5 23.8
17:25 1011 29.85 841 24.83 -2.9 26.7 89 -4.6 23.8
17:30 1011 29.85 841 24.83 -3 26.7 88 -4.6 23.6
17:35 1012 29.88 841 24.83 -3.1 26.3 88 -4.8 23.4
17:40 1012 29.88 841 24.83 -3.5 25.7 90 -4.9 23.2
17:45 1012 29.88 841 24.83 -3.5 25.7 89 -5 23
17:50 1012 29.88 841 24.83 -3.6 25.5 90 -5.1 22.9
17:55 1012 29.88 841 24.83 -3.7 25.4 90 -5.1 22.7
18:00 1012 29.88 841 24.83 -3.6 25.5 89 -5.1 22.8
18:05 1012 29.88 841 24.83 -3.6 25.5 89 -5.1 22.8
18:10 1012 29.88 841 24.83 -3.6 25.5 90 -5.1 22.8
18:15 1012 29.88 841 24.83 -3.6 25.6 90 -5.1 22.9
18:20 1012 29.88 841 24.83 -3.5 25.7 90 -4.9 23.2
18:25 1012 29.88 841 24.83 -3.5 25.7 89 -5.1 22.8
18:30 1012 29.88 841 24.83 -3.4 25.9 88 -5.1 22.9
18:35 1012 29.88 841 24.83 -3.4 26 88 -5.1 22.8
18:40 1012 29.88 841 24.83 -3.4 25.8 87 -5.3 22.5
18:45 1012 29.88 841 24.83 -3.6 25.6 88 -5.3 22.5
18:50 1012 29.88 842 24.86 -3.7 25.3 90 -5.2 22.6
18:55 1012 29.88 842 24.86 -3.7 25.3 89 -5.3 22.5
19:00 1013 29.91 842 24.86 -3.7 25.4 89 -5.3 22.5
19:05 1012 29.88 842 24.86 -3.6 25.5 89 -5.2 22.6
19:10 1012 29.88 841 24.83 -3.8 25.2 89 -5.3 22.4
19:15 1012 29.88 841 24.83 -3.8 25.1 89 -5.4 22.2
19:20 1012 29.88 842 24.86 -3.8 25.1 89 -5.4 22.2
19:25 1013 29.91 842 24.86 -3.7 25.3 87 -5.5 22
19:30 1013 29.91 842 24.86 -3.6 25.6 87 -5.5 22.1
19:35 1013 29.91 842 24.86 -3.6 25.5 87 -5.5 22.2
19:40 1013 29.91 842 24.86 -3.7 25.3 88 -5.4 22.3
19:45 1013 29.91 842 24.86 -3.8 25.2 89 -5.3 22.5
19:50 1013 29.91 842 24.86 -4 24.8 89 -5.5 22
19:55 1013 29.91 842 24.86 -3.9 24.9 88 -5.6 21.9
20:00 1013 29.91 842 24.86 -3.9 24.9 88 -5.6 22
20:05 1013 29.91 842 24.86 -3.8 25.1 88 -5.5 22
20:10 1013 29.91 842 24.86 -3.8 25.2 88 -5.6 22
20:15 1013 29.91 842 24.86 -3.8 25.1 88 -5.5 22.1
20:20 1013 29.91 842 24.86 -3.8 25.1 89 -5.4 22.3
20:25 1013 29.91 842 24.86 -3.9 24.9 89 -5.6 22
20:30 1013 29.91 842 24.86 -4 24.9 87 -5.8 21.6
20:35 1013 29.91 842 24.86 -4 24.8 86 -6 21.3
20:40 1013 29.91 843 24.89 -3.8 25.1 85 -5.9 21.3
20:45 1014 29.94 843 24.89 -3.7 25.3 84 -6 21.2
20:50 1014 29.94 843 24.89 -3.6 25.5 84 -6 21.2
20:55 1014 29.94 843 24.89 -3.5 25.8 83 -6 21.2
21:00 1014 29.94 843 24.89 -3.2 26.2 82 -6 21.3
21:05 1014 29.94 843 24.89 -3.3 26.1 83 -5.8 21.5
21:10 1014 29.94 843 24.89 -3.5 25.7 82 -6.1 21
21:15 1014 29.94 843 24.89 -3.3 26.1 81 -6 21.1
21:20 1014 29.94 843 24.89 -3.3 26.1 83 -5.9 21.5
21:25 1014 29.94 843 24.89 -3.2 26.2 83 -5.7 21.7
21:30 1014 29.94 843 24.89 -3.3 26.1 84 -5.7 21.8
21:35 1014 29.94 843 24.89 -3.4 25.9 84 -5.8 21.6
21:40 1014 29.94 843 24.89 -3.8 25.1 86 -5.9 21.4
21:45 1014 29.94 843 24.89 -3.9 25.1 86 -5.8 21.5
21:50 1014 29.94 844 24.92 -3.8 25.2 86 -5.8 21.6
21:55 1014 29.94 844 24.92 -3.9 24.9 87 -5.8 21.5
22:00 1015 29.97 844 24.92 -3.9 24.9 87 -5.8 21.6
22:05 1015 29.97 844 24.92 -3.9 25.1 86 -5.8 21.5
22:10 1015 29.97 844 24.92 -4 24.9 86 -5.9 21.4
22:15 1015 29.97 844 24.92 -4.2 24.4 88 -5.9 21.3
22:20 1015 29.97 844 24.92 -4.1 24.7 88 -5.9 21.5
22:25 1015 29.97 844 24.92 -3.7 25.3 87 -5.6 21.9
22:30 1015 29.97 844 24.92 -3.6 25.5 87 -5.5 22.1
22:35 1015 29.97 844 24.92 -3.5 25.6 86 -5.5 22.1
22:40 1015 29.97 844 24.92 -3.5 25.7 86 -5.5 22
22:45 1015 29.97 844 24.92 -3.5 25.6 87 -5.5 22.1
22:50 1015 29.97 844 24.92 -3.6 25.4 87 -5.5 22
22:55 1015 29.97 844 24.92 -3.8 25.2 88 -5.6 22
23:00 1015 29.97 844 24.92 -3.9 25 87 -5.7 21.7
23:05 1015 29.97 844 24.92 -4.1 24.7 87 -5.9 21.4
23:10 1015 29.97 844 24.92 -4.2 24.5 88 -5.8 21.5
23:15 1015 29.97 845 24.95 -4.4 24.2 88 -6 21.1
23:20 1015 29.97 845 24.95 -4.4 24.1 88 -6 21.1
23:25 1015 29.97 845 24.95 -4.5 23.9 89 -6 21.2
23:30 1015 29.97 845 24.95 -4.3 24.3 88 -6 21.2
23:35 1015 29.97 845 24.95 -4 24.8 85 -6.2 20.8
23:40 1016 30 845 24.95 -3.6 25.4 82 -6.2 20.8
23:45 1016 30 845 24.95 -3.6 25.6 83 -6 21.1
23:50 1016 30 845 24.95 -4 24.8 89 -5.5 22.1
23:55 1016 30 845 24.95 -4.2 24.4 90 -5.6 21.9
24:00 1016 30 845 24.95 -4.3 24.3 89 -5.8 21.6